Aviation Digital Data Service (ADDS)

Output produced by TAFs form (1908 UTC 24 April 2017)
found at http://aviationweather.gov/adds/tafs/
 
KHOB 241720Z 2418/2518 22014G19KT P6SM FEW250 
     FM241900 22019G29KT P6SM FEW250 
     FM250100 23014KT P6SM FEW250